Arneckeville, Texas
Current Conditions -  °F | °C
As of 4:51 PM on Wednesday 22 Oct 2014 (Local Time) from KVCT Reporting Station
Clear Clear  
Wind Chill: 86°   Ceiling: Unl
Heat Index: 86°   Visibility: 10mi
Dew Point: 57°   Wind: 9mph
Humidity: 37%   Direction: 70°ENE
Pressure: 30"   Gusts: NA
Location:  29.0941°N, 97.191°W
Report Text: KVCT 222151Z AUTO 07008KT 10SM CLR 30/14 A3000 RMK AO2 SLP158 T03000139
Loading
Personal Weather Stations






























Interactive Weather Map
Tropical Storm Tracking
New forecast layout! Learn more

10-Day Weather Forecast

Advertisements
Track Severe Weather on mobile